CPX426 Details

Departure: Tulsa International Airport (KTUL)
Arrival: El Paso International Airport (KELP)
Route: TUL J78 IRW J74 TXO CME SAMMR3


Current Weather Information
KTUL 221153Z 26005KT 10SM SCT250 03/01 A3020 RMK AO2 SLP226 T00280006 10089 20022 53004
KELP 221151Z 18004KT 10SM SCT130 BKN210 12/08 A2998 RMK AO2 SLP103 T01170078 10150 20117 55006